Bloomsbury, New Jersey
Current Conditions -  °F | °C
As of 7:51 PM on Tuesday 21 Oct 2014 (Local Time) from KABE Reporting Station
Overcast Overcast  
Wind Chill: 60°   Ceiling: 2500
Heat Index: 60°   Visibility: 10mi
Dew Point: 49°   Wind: 8mph
Humidity: 67%   Direction: 70°ENE
Pressure: 29.88"   Gusts: NA
Location:  40.65°N, 75.09°W
Report Text: KABE 212351Z 07007KT 10SM BKN025 OVC032 16/09 A2988 RMK AO2 SLP118 T01560094 10194 20150 51017
Loading
Personal Weather Stations






























Interactive Weather Map
Tropical Storm Tracking
New forecast layout! Learn more

10-Day Weather Forecast

Advertisements
Track Severe Weather on mobile